Estación municipal de Queralbs (Ripollès, P.N.de les capçaleres del Ter i el Freser)

Consulta los datos en tiempo real de la estación municipal de Queralbs





Hora UTC 07:35
Temperatura 8.0 ºC
Humedad 78.3 %
Pluja 0.0 mm
Velocidad viento 3.3 km/h
Dirección viento ENE

Datos diarios 2026-05-07



Hora UTC (invierno +1h; verano +2h)
Temperatura (ºC) Humedad (%) Velocidad viento (km/h) Precipitación (mm)
Hora UTC Aire Humedad Vel. Dir. Vel. Max Dir. Intent. máx 5 min.
00:05 4.8 95.8 0.0 N 0.0 N 0.0
00:10 4.7 95.8 0.3 N 1.4 N 0.0
00:15 4.7 95.9 0.0 NNE 0.0 N 0.0
00:20 4.7 96.0 0.0 NNW 1.1 NNW 0.0
00:25 4.7 96.2 0.0 NNE 0.0 N 0.0
00:30 4.8 96.1 0.0 NNE 0.0 NNW 0.0
00:35 4.8 96.1 0.0 NNE 0.0 N 0.0
00:40 4.8 96.2 0.1 SSW 1.8 S 0.0
00:45 4.9 96.2 0.0 NNE 0.0 SW 0.0
00:50 4.9 96.2 0.5 ESE 2.1 SE 0.0
00:55 4.9 96.2 0.0 NNE 0.0 NNW 0.0
01:00 4.9 96.2 0.0 SSW 1.4 S 0.0
01:05 4.9 96.3 1.5 NNE 2.8 N 0.0
01:10 4.9 96.4 0.0 NE 1.4 NE 0.0
01:15 4.9 96.3 0.5 NNW 1.8 NNW 0.0
01:20 4.9 96.2 0.1 WNW 1.4 WNW 0.0
01:25 4.9 96.1 0.5 ENE 2.8 ENE 0.0
01:30 4.9 96.3 0.4 ESE 1.4 ENE 0.0
01:35 4.9 96.4 0.5 NNW 1.8 NNW 0.0
01:40 4.8 96.5 0.8 NNW 2.5 NNW 0.0
01:45 4.8 96.4 1.2 SW 4.2 SW 0.0
01:50 4.8 96.4 1.0 SW 2.8 SW 0.0
01:55 4.8 96.4 0.5 SE 2.5 ESE 0.0
02:00 4.8 96.3 0.0 E 1.1 E 0.0
02:05 4.8 96.4 0.5 NNW 1.4 NNW 0.0
02:10 4.8 96.5 0.9 N 2.1 NNW 0.0
02:15 4.8 96.6 0.0 NNE 0.0 N 0.0
02:20 4.8 96.7 0.0 NNE 0.0 NNE 0.0
02:25 4.8 96.5 0.0 NNE 0.0 N 0.0
02:30 4.8 96.4 0.0 NNE 0.0 NW 0.0
02:35 4.7 96.4 0.0 NNE 0.0 WNW 0.0
02:40 4.7 96.5 0.0 NNE 0.0 NNW 0.0
02:45 4.6 96.4 0.2 SW 2.1 S 0.0
02:50 4.6 96.5 0.2 WSW 2.5 S 0.0
02:55 4.5 96.3 0.0 SSW 1.4 SSW 0.0
03:00 4.4 96.2 0.6 WSW 2.1 WSW 0.0
03:05 4.2 96.2 0.0 NNE 0.0 N 0.0
03:10 4.1 96.3 0.8 SW 2.1 NE 0.0
03:15 4.0 96.4 0.8 WNW 2.5 N 0.0
03:20 4.0 96.4 0.0 NNE 0.0 WNW 0.0
03:25 3.8 96.2 0.3 W 2.1 WSW 0.0
03:30 3.7 96.4 0.9 SW 2.1 WSW 0.0
03:35 3.6 96.5 0.1 S 2.5 SSE 0.0
03:40 3.6 96.5 1.0 SSW 2.5 SSW 0.0
03:45 3.5 96.6 0.0 NNE 0.0 WSW 0.0
03:50 3.5 96.8 0.0 NNE 0.0 W 0.0
03:55 3.5 97.0 0.0 WSW 1.1 WSW 0.0
04:00 3.6 97.0 0.1 N 2.1 0.0
04:05 3.5 96.8 0.8 NNW 2.5 WSW 0.0
04:10 3.5 96.7 0.7 SSW 3.5 SW 0.0
04:15 3.4 96.7 3.4 NNW 5.3 N 0.0
04:20 3.2 96.5 2.7 NW 4.6 NNW 0.0
04:25 3.1 96.7 2.8 WSW 5.3 WSW 0.0
04:30 3.2 97.1 0.9 N 3.9 N 0.0
04:35 3.3 96.8 1.6 NNW 3.2 NNW 0.0
04:40 3.2 96.7 0.7 N 4.9 N 0.0
04:45 3.1 96.8 1.8 W 3.2 SW 0.0
04:50 3.1 97.0 1.4 WNW 3.2 WSW 0.0
04:55 3.3 97.0 1.1 W 3.2 NNW 0.0
05:00 3.2 96.8 2.2 NNW 5.3 N 0.0
05:05 3.1 96.8 1.6 W 3.5 NW 0.0
05:10 3.3 97.1 1.1 WSW 2.8 WSW 0.0
05:15 3.3 96.9 0.5 SSW 2.1 SSW 0.0
05:20 3.2 96.7 0.0 NNE 0.0 ESE 0.0
05:25 3.1 96.8 0.0 NNE 0.0 NNE 0.0
05:30 3.1 97.0 1.0 W 2.5 W 0.0
05:35 3.2 97.1 0.9 SSW 3.2 SSW 0.0
05:40 3.2 96.9 0.0 S 1.1 SSW 0.0
05:45 3.1 96.9 0.7 WNW 3.2 N 0.0
05:50 3.2 96.9 2.0 NW 4.6 N 0.0
05:55 3.1 96.9 1.9 NW 4.6 NNE 0.0
06:00 3.3 97.1 2.0 SW 6.0 SSW 0.0
06:05 3.9 97.8 1.7 SSE 4.9 S 0.0
06:10 4.5 97.8 0.0 NNE 0.0 W 0.0
06:15 4.9 97.0 2.1 ESE 4.2 SE 0.0
06:20 4.8 95.7 1.9 ENE 3.2 ENE 0.0
06:25 5.0 94.9 2.4 ENE 4.9 ENE 0.0
06:30 5.4 94.3 1.6 ENE 3.2 E 0.0
06:35 5.8 94.0 1.1 ENE 4.2 NE 0.0
06:40 6.0 94.6 1.8 SSE 5.6 S 0.0
06:45 6.2 93.5 1.7 ENE 4.9 ENE 0.0
06:50 6.5 92.9 2.8 ENE 5.6 E 0.0
06:55 6.5 92.2 3.4 ENE 5.6 ENE 0.0
07:00 6.6 91.9 2.9 ENE 4.6 E 0.0
07:05 6.8 90.4 2.1 ENE 6.0 ENE 0.0
07:10 6.9 89.1 2.6 E 5.6 ENE 0.0
07:15 7.5 89.0 2.8 SE 4.9 SE 0.0
07:20 7.6 87.2 2.9 ESE 5.6 ENE 0.0
07:25 7.5 83.7 4.7 ENE 7.4 NE 0.0
07:30 7.6 80.7 3.7 ENE 6.0 ENE 0.0
07:35 8.0 78.3 3.3 ENE 5.3 ENE 0.0
Máxima 8.0 97.8 4.7 ENE 7.4 NE 0.0
Mínima 3.1 78.3
Total 0.0